createdAt,value
2017-04-11T00:00:01.190Z,3.98
2017-04-11T00:01:02.226Z,4.35
2017-04-11T00:02:01.530Z,3.60
2017-04-11T00:03:00.905Z,3.53
2017-04-11T00:04:00.253Z,3.57
2017-04-11T00:05:01.872Z,3.65
2017-04-11T00:06:01.204Z,3.80
2017-04-11T00:07:00.484Z,3.55
2017-04-11T00:07:59.794Z,3.45
2017-04-11T00:08:59.110Z,4.20
2017-04-11T00:09:58.443Z,4.27
2017-04-11T00:10:58.485Z,4.07
2017-04-11T00:11:57.786Z,3.75
2017-04-11T00:12:57.085Z,4.37
2017-04-11T00:13:56.334Z,3.83
2017-04-11T00:14:55.598Z,2.93
2017-04-11T00:15:55.663Z,3.55
2017-04-11T00:16:54.999Z,3.70
2017-04-11T00:17:55.072Z,3.48
2017-04-11T00:18:55.073Z,4.22
2017-04-11T00:19:54.368Z,3.90
2017-04-11T00:20:53.714Z,4.02
2017-04-11T00:21:53.012Z,3.85
2017-04-11T00:22:52.291Z,3.23
2017-04-11T00:23:51.582Z,3.77
2017-04-11T00:24:56.191Z,4.15
2017-04-11T00:25:56.214Z,3.57
2017-04-11T00:26:55.531Z,4.08
2017-04-11T00:27:54.780Z,3.55
2017-04-11T00:28:54.806Z,3.95
2017-04-11T00:29:54.084Z,3.47
2017-04-11T00:30:53.438Z,3.68
2017-04-11T00:31:53.544Z,3.75
2017-04-11T00:32:52.878Z,4.37
2017-04-11T00:33:52.163Z,4.40
2017-04-11T00:34:51.507Z,4.33
2017-04-11T00:35:50.745Z,5.02
2017-04-11T00:36:50.031Z,5.30
2017-04-11T00:37:49.307Z,3.30
2017-04-11T00:38:49.277Z,3.93
2017-04-11T00:39:48.563Z,3.72
2017-04-11T00:40:48.118Z,3.22
2017-04-11T00:41:47.378Z,3.90
2017-04-11T00:42:47.512Z,3.38
2017-04-11T00:43:46.763Z,4.07
2017-04-11T00:44:46.034Z,4.00
2017-04-11T00:45:45.272Z,5.23
2017-04-11T00:46:45.317Z,3.37
2017-04-11T00:47:44.591Z,4.48
2017-04-11T00:48:43.876Z,4.93
2017-04-11T00:49:43.150Z,4.53
2017-04-11T00:50:43.520Z,2.93
2017-04-11T00:51:42.757Z,3.60
2017-04-11T00:52:42.799Z,2.98
2017-04-11T00:53:42.064Z,3.05
2017-04-11T00:54:41.386Z,3.80
2017-04-11T00:55:40.698Z,4.48
2017-04-11T00:56:39.950Z,4.20
2017-04-11T00:57:39.288Z,3.40
2017-04-11T00:58:38.573Z,3.82
2017-04-11T00:59:37.822Z,3.55
2017-04-11T01:00:37.115Z,3.03
2017-04-11T01:01:37.266Z,4.00
2017-04-11T01:02:37.329Z,3.87
2017-04-11T01:03:36.735Z,3.63
2017-04-11T01:04:36.003Z,4.63
2017-04-11T01:05:35.335Z,3.75
2017-04-11T01:06:34.609Z,3.43
2017-04-11T01:07:33.925Z,3.33
2017-04-11T01:08:33.264Z,4.43
2017-04-11T01:09:32.548Z,3.97
2017-04-11T01:10:31.797Z,4.52
2017-04-11T01:11:31.050Z,3.28
2017-04-11T01:12:30.650Z,3.57
2017-04-11T01:13:29.902Z,3.67
2017-04-11T01:14:29.173Z,3.90
2017-04-11T01:15:29.178Z,3.60
2017-04-11T01:16:29.190Z,3.40
2017-04-11T01:17:29.185Z,3.95
2017-04-11T01:18:29.167Z,4.48
2017-04-11T01:19:28.409Z,4.23
2017-04-11T01:20:27.676Z,4.53
2017-04-11T01:21:27.004Z,3.98
2017-04-11T01:22:26.327Z,4.63
2017-04-11T01:23:25.599Z,4.77
2017-04-11T01:24:24.856Z,5.10
2017-04-11T01:25:24.117Z,4.22
2017-04-11T01:26:23.388Z,4.42
2017-04-11T01:27:22.648Z,5.87
2017-04-11T01:28:21.934Z,3.92
2017-04-11T01:29:21.241Z,5.45
2017-04-11T01:30:20.514Z,3.92
2017-04-11T01:31:19.801Z,5.05
2017-04-11T01:32:19.115Z,4.92
2017-04-11T01:33:18.682Z,5.22
2017-04-11T01:34:17.939Z,4.25
2017-04-11T01:35:18.022Z,2.88
2017-04-11T01:36:17.321Z,4.60
2017-04-11T01:37:16.576Z,3.12
2017-04-11T01:38:15.862Z,3.47
2017-04-11T01:39:15.173Z,3.62
2017-04-11T01:40:14.481Z,4.57
2017-04-11T01:41:13.775Z,2.93
2017-04-11T01:42:13.851Z,3.93
2017-04-11T01:43:13.096Z,4.68
2017-04-11T01:44:13.138Z,4.38
2017-04-11T01:45:12.397Z,4.80
2017-04-11T01:46:11.764Z,4.73
2017-04-11T01:47:11.787Z,4.48
2017-04-11T01:48:11.040Z,5.50
2017-04-11T01:49:10.377Z,4.88
2017-04-11T01:50:09.626Z,4.33
2017-04-11T01:51:08.886Z,3.83
2017-04-11T01:52:08.172Z,4.10
2017-04-11T01:53:07.454Z,3.67
2017-04-11T01:54:06.712Z,5.40
2017-04-11T01:55:06.748Z,3.73
2017-04-11T01:56:06.022Z,5.07
2017-04-11T01:57:05.302Z,4.58
2017-04-11T01:58:04.553Z,3.53
2017-04-11T01:59:03.817Z,4.12
2017-04-11T02:00:03.154Z,3.43
2017-04-11T02:01:04.150Z,3.48
2017-04-11T02:02:03.483Z,3.72
2017-04-11T02:03:03.833Z,3.43
2017-04-11T02:04:03.140Z,4.25
2017-04-11T02:05:02.465Z,4.07
2017-04-11T02:06:01.737Z,3.73
2017-04-11T02:07:01.034Z,4.87
2017-04-11T02:08:00.327Z,3.88
2017-04-11T02:09:00.356Z,3.68
2017-04-11T02:10:00.346Z,3.60
2017-04-11T02:11:00.594Z,5.62
2017-04-11T02:11:59.860Z,4.20
2017-04-11T02:12:59.905Z,4.35
2017-04-11T02:13:59.135Z,4.57
2017-04-11T02:14:58.390Z,3.85
2017-04-11T02:15:57.707Z,3.70
2017-04-11T02:16:57.000Z,3.75
2017-04-11T02:17:56.265Z,5.02
2017-04-11T02:18:55.562Z,4.98
2017-04-11T02:19:54.871Z,4.80
2017-04-11T02:20:54.129Z,3.52
2017-04-11T02:21:53.386Z,4.57
2017-04-11T02:22:53.371Z,4.62
2017-04-11T02:23:52.624Z,4.53
2017-04-11T02:24:51.917Z,3.95
2017-04-11T02:25:51.184Z,3.93
2017-04-11T02:26:50.492Z,3.87
2017-04-11T02:27:49.762Z,3.92
2017-04-11T02:28:49.063Z,4.15
2017-04-11T02:29:48.664Z,4.05
2017-04-11T02:30:47.960Z,3.95
2017-04-11T02:31:47.221Z,4.50
2017-04-11T02:32:46.475Z,3.32
2017-04-11T02:33:45.768Z,3.72
2017-04-11T02:34:45.798Z,3.78
2017-04-11T02:35:45.060Z,4.37
2017-04-11T02:36:44.308Z,4.63
2017-04-11T02:37:43.568Z,4.30
2017-04-11T02:38:42.847Z,5.38
2017-04-11T02:39:42.904Z,3.70
2017-04-11T02:40:42.802Z,4.10
2017-04-11T02:41:42.043Z,4.38
2017-04-11T02:42:42.040Z,4.57
2017-04-11T02:43:41.339Z,4.73
2017-04-11T02:44:41.327Z,4.87
2017-04-11T02:45:40.648Z,4.60
2017-04-11T02:46:39.940Z,3.50
2017-04-11T02:47:39.259Z,3.72
2017-04-11T02:48:38.511Z,4.70
2017-04-11T02:49:38.523Z,3.15
2017-04-11T02:50:38.564Z,4.57
2017-04-11T02:51:37.851Z,4.45
2017-04-11T02:52:37.125Z,4.20
2017-04-11T02:53:36.399Z,3.63
2017-04-11T02:54:36.397Z,4.63
2017-04-11T02:55:36.460Z,3.97
2017-04-11T02:56:35.847Z,4.47
2017-04-11T02:57:35.163Z,4.08
2017-04-11T02:58:34.442Z,4.00
2017-04-11T02:59:33.728Z,3.83
2017-04-11T03:00:33.044Z,4.70
2017-04-11T03:01:32.304Z,3.67
2017-04-11T03:02:31.573Z,4.00
2017-04-11T03:03:30.903Z,5.48
2017-04-11T03:04:30.462Z,4.58
2017-04-11T03:05:31.018Z,3.22
2017-04-11T03:06:30.307Z,3.83
2017-04-11T03:07:29.588Z,3.22
2017-04-11T03:08:29.138Z,3.28
2017-04-11T03:09:28.596Z,4.47
2017-04-11T03:10:28.157Z,3.80
2017-04-11T03:11:27.427Z,3.60
2017-04-11T03:12:26.695Z,3.47
2017-04-11T03:13:25.997Z,4.75
2017-04-11T03:14:25.298Z,4.18
2017-04-11T03:15:24.539Z,4.67
2017-04-11T03:16:23.917Z,3.05
2017-04-11T03:17:23.181Z,4.95
2017-04-11T03:18:22.459Z,4.53
2017-04-11T03:19:21.743Z,3.07
2017-04-11T03:20:21.180Z,4.47
2017-04-11T03:21:20.493Z,3.57
2017-04-11T03:22:20.488Z,3.65
2017-04-11T03:23:20.517Z,2.98
2017-04-11T03:24:20.507Z,3.65
2017-04-11T03:25:20.498Z,4.27
2017-04-11T03:26:19.799Z,3.00
2017-04-11T03:27:19.073Z,4.45
2017-04-11T03:28:18.328Z,3.42
2017-04-11T03:29:17.594Z,3.27
2017-04-11T03:30:17.620Z,3.55
2017-04-11T03:31:16.914Z,4.28
2017-04-11T03:32:16.170Z,3.85
2017-04-11T03:33:16.155Z,4.50
2017-04-11T03:34:15.450Z,3.35
2017-04-11T03:35:14.696Z,4.00
2017-04-11T03:36:14.015Z,3.47
2017-04-11T03:37:13.310Z,2.85
2017-04-11T03:38:12.577Z,3.02
2017-04-11T03:39:11.826Z,3.60
2017-04-11T03:40:11.199Z,4.07
2017-04-11T03:41:11.234Z,3.10
2017-04-11T03:42:10.498Z,3.53
2017-04-11T03:43:10.530Z,3.52
2017-04-11T03:44:09.781Z,3.30
2017-04-11T03:45:09.084Z,3.72
2017-04-11T03:46:09.142Z,4.40
2017-04-11T03:47:08.397Z,3.52
2017-04-11T03:48:07.730Z,3.72
2017-04-11T03:49:07.012Z,4.15
2017-04-11T03:50:06.281Z,2.90
2017-04-11T03:51:05.569Z,4.40
2017-04-11T03:52:04.839Z,4.42
2017-04-11T03:53:04.851Z,5.18
2017-04-11T03:54:04.865Z,3.52
2017-04-11T03:55:04.425Z,3.85
2017-04-11T03:56:03.701Z,4.30
2017-04-11T03:57:02.954Z,4.30
2017-04-11T03:58:02.185Z,4.08
2017-04-11T03:59:01.429Z,4.12
2017-04-11T04:00:00.693Z,3.80
2017-04-11T04:01:00.717Z,3.23
2017-04-11T04:01:59.996Z,4.13
2017-04-11T04:02:59.275Z,4.55
2017-04-11T04:03:59.284Z,3.78
2017-04-11T04:04:59.287Z,4.62
2017-04-11T04:05:59.290Z,4.82
2017-04-11T04:07:00.555Z,4.88
2017-04-11T04:07:59.851Z,4.23
2017-04-11T04:08:59.365Z,3.65
2017-04-11T04:09:58.687Z,3.62
2017-04-11T04:10:57.989Z,3.25
2017-04-11T04:11:58.006Z,2.60
2017-04-11T04:12:59.414Z,2.75
2017-04-11T04:13:58.711Z,3.02
2017-04-11T04:14:57.983Z,2.53
2017-04-11T04:15:57.321Z,3.30
2017-04-11T04:16:57.335Z,3.25
2017-04-11T04:17:56.626Z,2.02
2017-04-11T04:18:55.903Z,3.42
2017-04-11T04:19:55.962Z,2.77
2017-04-11T04:20:55.246Z,2.82
2017-04-11T04:21:54.577Z,3.62
2017-04-11T04:22:54.568Z,3.02
2017-04-11T04:23:53.817Z,2.57
2017-04-11T04:24:53.071Z,2.20
2017-04-11T04:25:53.086Z,2.25
2017-04-11T04:26:52.358Z,2.77
2017-04-11T04:27:52.388Z,2.10
2017-04-11T04:28:51.661Z,2.17
2017-04-11T04:29:51.645Z,2.25
2017-04-11T04:30:50.932Z,2.77
2017-04-11T04:31:50.821Z,2.35
2017-04-11T04:32:50.100Z,2.85
2017-04-11T04:33:49.361Z,1.62
2017-04-11T04:34:48.725Z,2.15
2017-04-11T04:35:48.731Z,2.27
2017-04-11T04:36:48.739Z,2.80
2017-04-11T04:37:48.766Z,2.62
2017-04-11T04:38:48.126Z,1.98
2017-04-11T04:39:47.397Z,2.05
2017-04-11T04:40:46.647Z,2.22
2017-04-11T04:41:45.919Z,1.72
2017-04-11T04:42:45.958Z,2.03
2017-04-11T04:43:45.237Z,1.58
2017-04-11T04:44:44.514Z,2.23
2017-04-11T04:45:43.775Z,2.48
2017-04-11T04:46:43.080Z,2.57
2017-04-11T04:47:43.061Z,1.63
2017-04-11T04:48:42.346Z,2.00
2017-04-11T04:49:41.598Z,2.07
2017-04-11T04:50:40.902Z,2.50
2017-04-11T04:51:40.218Z,2.20
2017-04-11T04:52:39.520Z,2.90
2017-04-11T04:53:38.796Z,2.35
2017-04-11T04:54:38.049Z,2.35
2017-04-11T04:55:37.403Z,2.22
2017-04-11T04:56:37.385Z,2.35
2017-04-11T04:57:36.925Z,2.48
2017-04-11T04:58:36.158Z,2.00
2017-04-11T04:59:35.475Z,2.15
2017-04-11T05:00:35.510Z,2.35
2017-04-11T05:01:34.749Z,1.75
2017-04-11T05:02:34.057Z,2.45
2017-04-11T05:03:33.298Z,1.58
2017-04-11T05:04:32.571Z,2.15
2017-04-11T05:05:32.135Z,1.97
2017-04-11T05:06:32.173Z,2.43
2017-04-11T05:07:31.467Z,2.20
2017-04-11T05:08:30.753Z,2.72
2017-04-11T05:09:29.999Z,2.90
2017-04-11T05:10:29.240Z,1.82
2017-04-11T05:11:28.549Z,2.20
2017-04-11T05:12:28.167Z,2.32
2017-04-11T05:13:27.447Z,2.03
2017-04-11T05:14:27.470Z,2.08
2017-04-11T05:15:26.702Z,2.77
2017-04-11T05:16:25.922Z,2.65
2017-04-11T05:17:25.167Z,2.75
2017-04-11T05:18:25.180Z,2.15
2017-04-11T05:19:24.415Z,3.40
2017-04-11T05:20:24.005Z,2.20
2017-04-11T05:21:23.266Z,2.72
2017-04-11T05:22:22.513Z,2.18
2017-04-11T05:23:21.812Z,2.20
2017-04-11T05:24:21.324Z,3.10
2017-04-11T05:25:21.339Z,2.23
2017-04-11T05:26:20.685Z,3.08
2017-04-11T05:27:19.922Z,2.33
2017-04-11T05:28:19.216Z,3.22
2017-04-11T05:29:18.469Z,2.42
2017-04-11T05:30:17.703Z,2.58
2017-04-11T05:31:16.956Z,2.95
2017-04-11T05:32:17.000Z,2.45
2017-04-11T05:33:16.719Z,2.37
2017-04-11T05:34:16.002Z,2.97
2017-04-11T05:35:15.302Z,3.00
2017-04-11T05:36:14.576Z,3.05
2017-04-11T05:37:13.855Z,2.05
2017-04-11T05:38:13.141Z,2.98
2017-04-11T05:39:12.438Z,3.05
2017-04-11T05:40:11.719Z,2.05
2017-04-11T05:41:11.049Z,2.07
2017-04-11T05:42:10.341Z,2.45
2017-04-11T05:43:09.641Z,2.52
2017-04-11T05:44:08.938Z,2.83
2017-04-11T05:45:08.219Z,2.67
2017-04-11T05:46:07.510Z,3.82
2017-04-11T05:47:06.798Z,2.83
2017-04-11T05:48:06.073Z,3.08
2017-04-11T05:49:06.723Z,4.23
2017-04-11T05:50:06.025Z,2.82
2017-04-11T05:51:06.019Z,3.05
2017-04-11T05:52:05.596Z,2.47
2017-04-11T05:53:04.861Z,3.35
2017-04-11T05:54:04.176Z,1.95
2017-04-11T05:55:03.438Z,3.00
2017-04-11T05:56:02.700Z,2.80
2017-04-11T05:57:01.999Z,3.27
2017-04-11T05:58:01.276Z,2.67
2017-04-11T05:59:01.295Z,3.10
2017-04-11T06:00:00.576Z,2.70
2017-04-11T06:01:00.753Z,2.50
2017-04-11T06:02:00.023Z,2.87
2017-04-11T06:03:00.263Z,3.75
2017-04-11T06:03:59.909Z,2.77
2017-04-11T06:04:59.204Z,2.75
2017-04-11T06:05:58.722Z,5.18
2017-04-11T06:06:58.325Z,2.03
2017-04-11T06:07:57.601Z,2.47
2017-04-11T06:08:56.896Z,2.95
2017-04-11T06:09:56.455Z,2.58
2017-04-11T06:10:56.089Z,3.05
2017-04-11T06:11:55.431Z,3.80
2017-04-11T06:12:55.508Z,2.70
2017-04-11T06:13:54.783Z,2.90
2017-04-11T06:14:54.087Z,2.98
2017-04-11T06:15:53.418Z,3.23
2017-04-11T06:16:52.832Z,2.83
2017-04-11T06:17:52.149Z,2.70
2017-04-11T06:18:51.457Z,2.73
2017-04-11T06:19:50.826Z,3.33
2017-04-11T06:20:50.189Z,2.57
2017-04-11T06:21:49.555Z,3.60
2017-04-11T06:22:49.575Z,2.65
2017-04-11T06:23:49.598Z,3.03
2017-04-11T06:24:49.040Z,3.00
2017-04-11T06:25:48.340Z,2.57
2017-04-11T06:26:48.379Z,2.80
2017-04-11T06:27:47.660Z,4.08
2017-04-11T06:28:46.956Z,2.22
2017-04-11T06:29:46.249Z,2.60
2017-04-11T06:30:45.534Z,2.75
2017-04-11T06:31:45.194Z,3.05
2017-04-11T06:32:44.528Z,2.65
2017-04-11T06:33:43.795Z,3.00
2017-04-11T06:34:43.824Z,2.70
2017-04-11T06:35:43.105Z,2.27
2017-04-11T06:36:42.397Z,2.42
2017-04-11T06:37:41.775Z,2.73
2017-04-11T06:38:41.842Z,2.28
2017-04-11T06:39:41.186Z,1.80
2017-04-11T06:40:40.438Z,2.95
2017-04-11T06:41:39.757Z,2.78
2017-04-11T06:42:39.121Z,2.00
2017-04-11T06:43:38.423Z,3.00
2017-04-11T06:44:38.759Z,3.02
2017-04-11T06:45:38.050Z,2.65
2017-04-11T06:46:37.395Z,2.80
2017-04-11T06:47:36.795Z,2.17
2017-04-11T06:48:36.066Z,2.20
2017-04-11T06:49:35.787Z,2.10
2017-04-11T06:50:35.096Z,2.20
2017-04-11T06:51:35.703Z,1.67
2017-04-11T06:52:34.998Z,2.23
2017-04-11T06:53:35.011Z,2.80
2017-04-11T06:54:35.338Z,2.28
2017-04-11T06:55:35.357Z,2.85
2017-04-11T06:56:34.645Z,2.03
2017-04-11T06:57:34.019Z,1.75
2017-04-11T06:58:34.075Z,2.03
2017-04-11T06:59:33.398Z,3.03
2017-04-11T07:00:32.757Z,3.08
2017-04-11T07:01:32.058Z,1.73
2017-04-11T07:02:31.421Z,3.38
2017-04-11T07:03:30.746Z,2.62
2017-04-11T07:04:30.042Z,2.72
2017-04-11T07:05:29.324Z,2.80
2017-04-11T07:06:28.606Z,2.08
2017-04-11T07:07:27.960Z,2.05
2017-04-11T07:08:27.437Z,2.38
2017-04-11T07:09:26.791Z,1.98
2017-04-11T07:10:26.183Z,2.65
2017-04-11T07:11:25.472Z,2.10
2017-04-11T07:12:24.935Z,2.85
2017-04-11T07:13:24.249Z,2.70
2017-04-11T07:14:23.560Z,2.08
2017-04-11T07:15:23.159Z,2.53
2017-04-11T07:16:22.434Z,2.05
2017-04-11T07:17:21.738Z,1.75
2017-04-11T07:18:21.045Z,2.07
2017-04-11T07:19:21.090Z,2.38
2017-04-11T07:20:20.369Z,1.88
2017-04-11T07:21:19.647Z,2.57
2017-04-11T07:22:18.929Z,2.52
2017-04-11T07:23:18.322Z,2.20
2017-04-11T07:24:17.920Z,2.07
2017-04-11T07:25:17.929Z,2.37
2017-04-11T07:26:20.564Z,1.72
2017-04-11T07:27:20.091Z,2.17
2017-04-11T07:28:19.485Z,1.70
2017-04-11T07:29:18.785Z,2.28
2017-04-11T07:30:18.375Z,2.67
2017-04-11T07:31:18.394Z,2.37
2017-04-11T07:32:17.691Z,1.88
2017-04-11T07:33:17.007Z,1.57
2017-04-11T07:34:16.329Z,2.17
2017-04-11T07:35:16.481Z,2.48
2017-04-11T07:36:15.851Z,2.38
2017-04-11T07:37:15.923Z,1.92
2017-04-11T07:38:15.202Z,1.55
2017-04-11T07:39:14.482Z,1.92
2017-04-11T07:40:14.477Z,2.17
2017-04-11T07:41:13.833Z,2.73
2017-04-11T07:42:13.914Z,2.12
2017-04-11T07:43:13.229Z,1.93
2017-04-11T07:44:13.250Z,1.70
2017-04-11T07:45:12.615Z,1.90
2017-04-11T07:46:13.348Z,2.62
2017-04-11T07:47:13.342Z,2.03
2017-04-11T07:48:12.615Z,1.92
2017-04-11T07:49:11.884Z,1.63
2017-04-11T07:50:11.184Z,1.48
2017-04-11T07:51:10.492Z,1.75
2017-04-11T07:52:09.780Z,1.82
2017-04-11T07:53:09.078Z,1.95
2017-04-11T07:54:08.333Z,1.77
2017-04-11T07:55:07.680Z,2.05
2017-04-11T07:56:07.822Z,2.57
2017-04-11T07:57:07.164Z,1.53
2017-04-11T07:58:06.469Z,2.80
2017-04-11T07:59:05.751Z,1.83
2017-04-11T08:00:05.813Z,2.20
2017-04-11T08:01:05.105Z,1.67
2017-04-11T08:02:04.376Z,1.62
2017-04-11T08:03:03.684Z,1.92
2017-04-11T08:04:03.079Z,1.77
2017-04-11T08:05:02.438Z,2.28
2017-04-11T08:06:01.811Z,1.33
2017-04-11T08:07:01.898Z,1.60
2017-04-11T08:08:01.174Z,1.28
2017-04-11T08:09:00.470Z,2.12
2017-04-11T08:09:59.737Z,1.42
2017-04-11T08:10:59.067Z,2.40
2017-04-11T08:11:59.149Z,1.68
2017-04-11T08:12:58.463Z,1.73
2017-04-11T08:13:57.786Z,1.57
2017-04-11T08:14:57.109Z,2.18
2017-04-11T08:16:31.447Z,2.00
2017-04-11T08:17:30.752Z,1.43
2017-04-11T08:18:30.101Z,1.73
2017-04-11T08:19:29.408Z,2.30
2017-04-11T08:20:28.672Z,2.20
2017-04-11T08:21:27.967Z,1.42
2017-04-11T08:22:27.257Z,4.27
2017-04-11T08:23:26.508Z,2.22
2017-04-11T08:24:25.785Z,1.90
2017-04-11T08:25:25.268Z,1.28
2017-04-11T08:26:24.704Z,1.62
2017-04-11T08:27:26.016Z,2.08
2017-04-11T08:28:25.289Z,2.53
2017-04-11T08:29:24.607Z,1.75
2017-04-11T08:30:23.846Z,2.10
2017-04-11T08:31:23.159Z,2.67
2017-04-11T08:32:22.433Z,2.02
2017-04-11T08:33:21.770Z,2.15
2017-04-11T08:34:21.155Z,2.48
2017-04-11T08:35:20.537Z,1.88
2017-04-11T08:36:20.194Z,2.73
2017-04-11T08:37:19.495Z,1.87
2017-04-11T08:38:18.828Z,1.83
2017-04-11T08:39:18.190Z,1.90
2017-04-11T08:40:17.455Z,1.83
2017-04-11T08:41:16.779Z,1.62
2017-04-11T08:42:16.162Z,1.97
2017-04-11T08:43:15.444Z,1.95
2017-04-11T08:44:14.727Z,1.22
2017-04-11T08:45:14.055Z,1.47
2017-04-11T08:46:14.044Z,2.00
2017-04-11T08:47:13.483Z,1.87
2017-04-11T08:48:12.780Z,1.42
2017-04-11T08:49:12.137Z,1.28
2017-04-11T08:50:12.227Z,2.00
2017-04-11T08:51:11.542Z,1.30
2017-04-11T08:52:10.873Z,1.55
2017-04-11T08:53:10.230Z,1.28
2017-04-11T08:54:09.603Z,1.75
2017-04-11T08:55:08.880Z,1.38
2017-04-11T08:56:08.150Z,1.23
2017-04-11T08:57:07.482Z,0.90
2017-04-11T08:58:06.850Z,1.40
2017-04-11T08:59:06.194Z,2.05
2017-04-11T09:00:05.777Z,1.28
2017-04-11T09:01:05.073Z,1.13
2017-04-11T09:02:04.481Z,1.50
2017-04-11T09:03:04.351Z,1.38
2017-04-11T09:04:04.057Z,1.47
2017-04-11T09:05:03.605Z,1.65
2017-04-11T09:06:02.936Z,1.28
2017-04-11T09:07:02.332Z,1.23
2017-04-11T09:08:01.650Z,1.37
2017-04-11T09:09:00.971Z,1.00
2017-04-11T09:10:00.430Z,1.50
2017-04-11T09:11:00.119Z,1.40
2017-04-11T09:11:59.698Z,1.03
2017-04-11T09:12:59.013Z,0.82
2017-04-11T09:13:58.422Z,1.68
2017-04-11T09:14:57.742Z,1.37
2017-04-11T09:15:57.202Z,1.18
2017-04-11T09:16:56.594Z,1.72
2017-04-11T09:17:56.435Z,1.22
2017-04-11T09:18:55.736Z,1.33
2017-04-11T09:19:55.047Z,1.47
2017-04-11T09:20:54.407Z,1.25
2017-04-11T09:21:53.714Z,0.93
2017-04-11T09:22:53.070Z,1.53
2017-04-11T09:23:52.387Z,1.10
2017-04-11T09:24:51.771Z,1.08
2017-04-11T09:25:51.099Z,1.50
2017-04-11T09:26:50.458Z,1.67
2017-04-11T09:27:49.972Z,1.28
2017-04-11T09:28:49.366Z,1.95
2017-04-11T09:29:48.723Z,2.25
2017-04-11T09:30:48.027Z,1.58
2017-04-11T09:31:47.440Z,2.03
2017-04-11T09:32:46.762Z,1.82
2017-04-11T09:33:46.123Z,1.47
2017-04-11T09:34:45.516Z,1.62
2017-04-11T09:35:44.827Z,1.17
2017-04-11T09:36:44.575Z,1.85
2017-04-11T09:37:43.897Z,1.57
2017-04-11T09:38:43.273Z,1.50
2017-04-11T09:39:42.570Z,1.65
2017-04-11T09:40:42.437Z,2.80
2017-04-11T09:41:41.740Z,1.80
2017-04-11T09:42:41.137Z,1.40
2017-04-11T09:43:40.678Z,1.82
2017-04-11T09:44:40.080Z,1.68
2017-04-11T09:45:39.422Z,1.87
2017-04-11T09:46:38.747Z,1.72
2017-04-11T09:47:38.293Z,1.67
2017-04-11T09:48:37.663Z,2.03
2017-04-11T09:49:37.079Z,1.67
2017-04-11T09:50:36.420Z,1.50
2017-04-11T09:51:36.113Z,1.53
2017-04-11T09:52:35.573Z,1.38
2017-04-11T09:53:34.880Z,0.98
2017-04-11T09:54:34.263Z,1.17
2017-04-11T09:55:33.556Z,2.13
2017-04-11T09:56:32.886Z,1.67
2017-04-11T09:57:32.609Z,0.85
2017-04-11T09:58:31.942Z,1.50
2017-04-11T09:59:31.875Z,1.02
2017-04-11T10:00:31.596Z,1.10
2017-04-11T10:01:31.342Z,1.55
2017-04-11T10:02:30.629Z,0.62
2017-04-11T10:03:30.039Z,1.00
2017-04-11T10:04:29.363Z,0.90
2017-04-11T10:05:29.163Z,1.07
2017-04-11T10:06:28.551Z,1.08
2017-04-11T10:07:27.908Z,1.48
2017-04-11T10:08:27.268Z,1.10
2017-04-11T10:09:26.596Z,1.12
2017-04-11T10:10:25.929Z,1.25
2017-04-11T10:11:25.335Z,1.02
2017-04-11T10:12:24.653Z,0.93
2017-04-11T10:13:24.018Z,1.45
2017-04-11T10:14:28.557Z,0.93
2017-04-11T10:15:28.362Z,0.87
2017-04-11T10:16:27.735Z,1.20
2017-04-11T10:17:27.483Z,1.22
2017-04-11T10:18:26.942Z,1.48
2017-04-11T10:19:26.432Z,1.35
2017-04-11T10:20:25.973Z,1.63
2017-04-11T10:21:25.497Z,1.25
2017-04-11T10:22:26.226Z,1.07
2017-04-11T10:23:28.957Z,1.00
2017-04-11T10:24:28.373Z,1.17
2017-04-11T10:25:27.792Z,1.60
2017-04-11T10:26:27.595Z,1.35
2017-04-11T10:27:26.957Z,1.62
2017-04-11T10:28:26.379Z,1.60
2017-04-11T10:29:25.744Z,2.05
2017-04-11T10:30:25.213Z,1.75
2017-04-11T10:31:24.628Z,1.47
2017-04-11T10:32:24.677Z,1.83
2017-04-11T10:33:23.958Z,1.42
2017-04-11T10:34:23.343Z,1.75
2017-04-11T10:35:22.782Z,1.98
2017-04-11T10:36:22.189Z,1.75
2017-04-11T10:37:21.714Z,2.23
2017-04-11T10:38:21.140Z,1.97
2017-04-11T10:39:20.996Z,1.97
2017-04-11T10:40:20.386Z,2.32
2017-04-11T10:41:19.763Z,1.48
2017-04-11T10:42:19.089Z,1.93
2017-04-11T10:43:18.576Z,1.45
2017-04-11T10:44:18.012Z,1.75
2017-04-11T10:45:17.372Z,2.83
2017-04-11T10:46:16.809Z,2.32
2017-04-11T10:47:16.869Z,2.18
2017-04-11T10:48:16.190Z,1.67
2017-04-11T10:49:15.634Z,2.13
2017-04-11T10:50:14.966Z,1.95
2017-04-11T10:51:14.363Z,2.25
2017-04-11T10:52:13.644Z,1.98
2017-04-11T10:53:12.925Z,1.88
2017-04-11T10:54:12.316Z,2.13
2017-04-11T10:55:11.628Z,1.83
2017-04-11T10:56:10.949Z,1.60
2017-04-11T10:57:10.337Z,1.82
2017-04-11T10:58:09.732Z,2.02
2017-04-11T10:59:09.061Z,1.42
2017-04-11T11:00:10.212Z,2.20
2017-04-11T11:01:09.786Z,1.62
2017-04-11T11:02:09.161Z,1.68
2017-04-11T11:03:08.511Z,1.95
2017-04-11T11:04:07.922Z,1.75
2017-04-11T11:05:07.359Z,1.97
2017-04-11T11:06:06.762Z,2.08
2017-04-11T11:07:06.117Z,1.37
2017-04-11T11:08:05.457Z,2.12
2017-04-11T11:09:05.304Z,2.40
2017-04-11T11:10:04.665Z,2.12
2017-04-11T11:11:04.730Z,1.90
2017-04-11T11:12:10.271Z,2.33
2017-04-11T11:13:09.959Z,1.78
2017-04-11T11:14:09.379Z,1.70
2017-04-11T11:15:08.804Z,1.13
2017-04-11T11:16:08.180Z,1.68
2017-04-11T11:17:07.691Z,1.57
2017-04-11T11:18:07.062Z,1.75
2017-04-11T11:19:06.774Z,1.42
2017-04-11T11:20:06.089Z,1.17
2017-04-11T11:21:05.433Z,1.65
2017-04-11T11:22:04.780Z,2.15
2017-04-11T11:23:04.187Z,1.58
2017-04-11T11:24:03.836Z,1.32
2017-04-11T11:25:03.190Z,2.12
2017-04-11T11:26:02.542Z,2.65
2017-04-11T11:27:01.875Z,1.75
2017-04-11T11:28:01.191Z,2.20
2017-04-11T11:29:00.586Z,2.05
2017-04-11T11:30:00.029Z,2.07
2017-04-11T11:30:59.531Z,2.87
2017-04-11T11:31:58.846Z,2.13
2017-04-11T11:32:58.177Z,2.22
2017-04-11T11:33:58.291Z,1.78
2017-04-11T11:34:57.672Z,1.70
2017-04-11T11:35:57.806Z,2.12
2017-04-11T11:36:57.870Z,2.27
2017-04-11T11:37:57.219Z,2.43
2017-04-11T11:38:56.459Z,2.32
2017-04-11T11:39:55.767Z,1.63
2017-04-11T11:40:55.028Z,2.25
2017-04-11T11:41:54.329Z,1.93
2017-04-11T11:42:53.667Z,1.93
2017-04-11T11:43:52.978Z,1.50
2017-04-11T11:44:52.265Z,2.22
2017-04-11T11:45:51.562Z,1.47
2017-04-11T11:46:50.900Z,2.10
2017-04-11T11:47:50.723Z,2.17
2017-04-11T11:48:50.025Z,1.40
2017-04-11T11:49:49.329Z,1.98
2017-04-11T11:50:48.631Z,2.08
2017-04-11T11:51:48.007Z,1.33
2017-04-11T11:52:47.384Z,1.57
2017-04-11T11:53:46.877Z,1.12
2017-04-11T11:54:46.256Z,1.70
2017-04-11T11:55:45.544Z,1.65
2017-04-11T11:56:44.810Z,1.13
2017-04-11T11:57:44.078Z,2.42
2017-04-11T11:58:44.086Z,1.40
2017-04-11T11:59:43.447Z,1.57
2017-04-11T12:00:42.800Z,1.60
2017-04-11T12:01:42.869Z,1.97
2017-04-11T12:02:42.141Z,1.45
2017-04-11T12:03:41.566Z,2.05
2017-04-11T12:04:41.273Z,2.38
2017-04-11T12:05:40.551Z,1.93
2017-04-11T12:06:39.883Z,2.00
2017-04-11T12:07:39.221Z,1.83
2017-04-11T12:08:38.578Z,1.73
2017-04-11T12:09:37.840Z,1.73
2017-04-11T12:10:37.185Z,2.05
2017-04-11T12:11:37.249Z,2.00
2017-04-11T12:12:36.551Z,1.83
2017-04-11T12:13:35.863Z,1.73
2017-04-11T12:14:35.154Z,2.50
2017-04-11T12:15:34.520Z,2.58
2017-04-11T12:16:33.787Z,1.78
2017-04-11T12:17:33.098Z,2.13
2017-04-11T12:18:32.397Z,1.93
2017-04-11T12:19:31.786Z,1.98
2017-04-11T12:20:36.102Z,2.13
2017-04-11T12:21:35.438Z,2.00
2017-04-11T12:22:34.803Z,2.18
2017-04-11T12:23:34.135Z,2.78
2017-04-11T12:24:33.436Z,1.90
2017-04-11T12:25:32.731Z,2.28
2017-04-11T12:26:31.995Z,2.25
2017-04-11T12:27:31.384Z,2.03
2017-04-11T12:28:30.685Z,1.60
2017-04-11T12:29:30.028Z,2.42
2017-04-11T12:30:29.296Z,2.28
2017-04-11T12:31:28.560Z,1.80
2017-04-11T12:32:28.617Z,1.92
2017-04-11T12:33:27.885Z,2.17
2017-04-11T12:34:27.340Z,1.98
2017-04-11T12:35:26.656Z,1.87
2017-04-11T12:36:26.025Z,2.40
2017-04-11T12:37:25.666Z,3.05
2017-04-11T12:38:24.988Z,2.18
2017-04-11T12:39:25.002Z,1.80
2017-04-11T12:40:24.319Z,1.88
2017-04-11T12:41:23.861Z,1.57
2017-04-11T12:42:23.139Z,1.90
2017-04-11T12:43:22.395Z,1.67
2017-04-11T12:44:21.702Z,2.35
2017-04-11T12:45:21.343Z,1.27
2017-04-11T12:46:20.657Z,2.38
2017-04-11T12:47:19.911Z,1.40
2017-04-11T12:48:19.226Z,1.72
2017-04-11T12:49:19.342Z,1.72
2017-04-11T12:50:18.677Z,1.68
2017-04-11T12:51:17.980Z,2.35
2017-04-11T12:52:17.277Z,1.70
2017-04-11T12:53:16.564Z,1.72
2017-04-11T12:54:15.817Z,1.75
2017-04-11T12:55:16.036Z,1.97
2017-04-11T12:56:15.437Z,1.27
2017-04-11T12:57:14.824Z,1.62
2017-04-11T12:58:14.228Z,1.78
2017-04-11T12:59:13.593Z,2.12
2017-04-11T13:00:12.949Z,1.37
2017-04-11T13:01:12.293Z,1.85
2017-04-11T13:02:11.614Z,1.58
2017-04-11T13:03:10.890Z,1.65
2017-04-11T13:04:10.490Z,1.15
2017-04-11T13:05:09.820Z,1.30
2017-04-11T13:06:09.157Z,1.75
2017-04-11T13:07:08.596Z,1.48
2017-04-11T13:08:07.877Z,1.40
2017-04-11T13:09:08.033Z,1.67
2017-04-11T13:10:08.163Z,1.63
2017-04-11T13:11:07.480Z,1.43
2017-04-11T13:12:06.795Z,2.20